createdAt,value
2023-04-22T00:00:56.851Z,100622.78
2023-04-22T00:03:24.377Z,100626.16
2023-04-22T00:05:51.913Z,100626.34
2023-04-22T00:08:19.468Z,100630.19
2023-04-22T00:10:46.896Z,100630.91
2023-04-22T00:13:14.254Z,100625.44
2023-04-22T00:15:41.649Z,100621.59
2023-04-22T00:18:13.901Z,100629.81
2023-04-22T00:20:43.867Z,100622.97
2023-04-22T00:23:12.148Z,100622.31
2023-04-22T00:25:40.663Z,100619.56
2023-04-22T00:28:08.228Z,100624.91
2023-04-22T00:30:36.262Z,100615.16
2023-04-22T00:33:03.916Z,100618.03
2023-04-22T00:35:31.315Z,100620.88
2023-04-22T00:38:08.002Z,100618.00
2023-04-22T00:40:35.455Z,100618.72
2023-04-22T00:43:02.985Z,100626.63
2023-04-22T00:45:31.273Z,100616.06
2023-04-22T00:47:58.953Z,100615.88
2023-04-22T00:50:27.033Z,100618.38
2023-04-22T00:52:55.973Z,100608.63
2023-04-22T00:55:23.594Z,100616.66
2023-04-22T00:57:52.234Z,100631.88
2023-04-22T01:00:20.360Z,100624.66
2023-04-22T01:02:48.128Z,100622.28
2023-04-22T01:05:16.246Z,100628.28
2023-04-22T01:07:43.791Z,100615.13
2023-04-22T01:10:11.486Z,100636.22
2023-04-22T01:12:38.928Z,100622.50
2023-04-22T01:15:07.328Z,100620.81
2023-04-22T01:17:35.251Z,100630.03
2023-04-22T01:20:04.613Z,100626.38
2023-04-22T01:22:36.755Z,100618.41
2023-04-22T01:25:04.418Z,100634.91
2023-04-22T01:27:31.987Z,100627.97
2023-04-22T01:29:59.905Z,100621.88
2023-04-22T01:32:30.517Z,100633.69
2023-04-22T01:34:59.148Z,100625.75
2023-04-22T01:37:26.829Z,100624.81
2023-04-22T01:39:54.674Z,100629.34
2023-04-22T01:42:22.592Z,100629.56
2023-04-22T01:44:50.041Z,100619.81
2023-04-22T01:47:17.605Z,100620.66
2023-04-22T01:49:45.009Z,100622.56
2023-04-22T01:52:13.362Z,100624.22
2023-04-22T01:54:41.360Z,100624.41
2023-04-22T01:57:14.232Z,100616.81
2023-04-22T01:59:42.568Z,100618.22
2023-04-22T02:02:10.142Z,100618.81
2023-04-22T02:04:37.786Z,100617.56
2023-04-22T02:07:06.528Z,100618.03
2023-04-22T02:09:38.773Z,100615.34
2023-04-22T02:12:07.428Z,100622.47
2023-04-22T02:14:35.029Z,100619.25
2023-04-22T02:17:03.949Z,100620.88
2023-04-22T02:19:31.413Z,100623.28
2023-04-22T02:21:59.173Z,100616.34
2023-04-22T02:24:26.918Z,100628.75
2023-04-22T02:26:54.255Z,100622.69
2023-04-22T02:29:21.905Z,100631.03
2023-04-22T02:31:49.448Z,100618.53
2023-04-22T02:34:17.284Z,100622.75
2023-04-22T02:36:44.840Z,100615.88
2023-04-22T02:39:12.401Z,100608.06
2023-04-22T02:41:40.369Z,100619.94
2023-04-22T02:44:07.916Z,100614.13
2023-04-22T02:46:35.481Z,100608.75
2023-04-22T02:49:02.911Z,100618.19
2023-04-22T02:51:31.114Z,100611.03
2023-04-22T02:53:58.612Z,100601.25
2023-04-22T02:56:27.403Z,100600.44
2023-04-22T02:58:54.784Z,100613.28
2023-04-22T03:01:22.302Z,100604.44
2023-04-22T03:03:50.411Z,100602.81
2023-04-22T03:06:22.521Z,100608.72
2023-04-22T03:08:50.068Z,100603.31
2023-04-22T03:11:17.522Z,100616.72
2023-04-22T03:13:45.052Z,100601.66
2023-04-22T03:16:12.839Z,100608.25
2023-04-22T03:18:40.606Z,100609.47
2023-04-22T03:21:08.524Z,100605.16
2023-04-22T03:23:35.972Z,100600.03
2023-04-22T03:26:03.588Z,100588.75
2023-04-22T03:28:31.077Z,100618.47
2023-04-22T03:30:58.543Z,100610.19
2023-04-22T03:33:26.474Z,100613.72
2023-04-22T03:36:03.324Z,100605.75
2023-04-22T03:38:30.945Z,100600.31
2023-04-22T03:40:58.575Z,100608.31
2023-04-22T03:43:37.629Z,100603.69
2023-04-22T03:46:08.815Z,100599.22
2023-04-22T03:48:40.485Z,100595.47
2023-04-22T03:51:13.889Z,100600.91
2023-04-22T03:53:42.122Z,100599.47
2023-04-22T03:56:12.668Z,100609.78
2023-04-22T03:58:45.035Z,100600.81
2023-04-22T04:01:12.720Z,100598.13
2023-04-22T04:03:42.536Z,100605.69
2023-04-22T04:06:11.422Z,100607.22
2023-04-22T04:08:38.956Z,100602.69
2023-04-22T04:11:08.472Z,100607.19
2023-04-22T04:13:35.976Z,100606.06
2023-04-22T04:16:15.501Z,100613.59
2023-04-22T04:18:45.204Z,100617.16
2023-04-22T04:21:13.780Z,100601.66
2023-04-22T04:23:47.728Z,100589.31
2023-04-22T04:26:16.709Z,100602.94
2023-04-22T04:28:49.238Z,100603.94
2023-04-22T04:31:18.248Z,100611.34
2023-04-22T04:33:46.803Z,100599.81
2023-04-22T04:36:15.394Z,100606.66
2023-04-22T04:38:43.420Z,100613.59
2023-04-22T04:41:10.947Z,100608.31
2023-04-22T04:43:40.723Z,100614.09
2023-04-22T04:46:23.769Z,100614.47
2023-04-22T04:48:54.089Z,100618.81
2023-04-22T04:51:22.023Z,100604.78
2023-04-22T04:53:53.468Z,100612.25
2023-04-22T04:56:21.049Z,100620.91
2023-04-22T04:58:49.162Z,100612.97
2023-04-22T05:01:20.126Z,100608.59
2023-04-22T05:03:48.953Z,100607.56
2023-04-22T05:06:18.446Z,100618.84
2023-04-22T05:08:50.399Z,100598.88
2023-04-22T05:11:19.208Z,100616.66
2023-04-22T05:13:49.372Z,100615.72
2023-04-22T05:16:23.129Z,100614.59
2023-04-22T05:18:50.872Z,100626.53
2023-04-22T05:21:18.301Z,100623.03
2023-04-22T05:23:46.223Z,100630.03
2023-04-22T05:26:15.338Z,100624.81
2023-04-22T05:28:44.263Z,100624.69
2023-04-22T05:31:11.656Z,100626.34
2023-04-22T05:33:39.113Z,100629.91
2023-04-22T05:36:07.171Z,100628.09
2023-04-22T05:38:35.828Z,100641.88
2023-04-22T05:41:03.125Z,100643.13
2023-04-22T05:43:30.686Z,100647.03
2023-04-22T05:46:07.502Z,100644.06
2023-04-22T05:48:37.888Z,100645.59
2023-04-22T05:51:09.092Z,100644.47
2023-04-22T05:53:37.979Z,100645.19
2023-04-22T05:56:06.157Z,100648.75
2023-04-22T05:58:34.086Z,100654.28
2023-04-22T06:01:09.471Z,100658.81
2023-04-22T06:03:53.113Z,100655.09
2023-04-22T06:06:20.968Z,100654.09
2023-04-22T06:08:48.741Z,100658.09
2023-04-22T06:11:16.112Z,100647.19
2023-04-22T06:13:43.404Z,100662.09
2023-04-22T06:16:11.354Z,100665.28
2023-04-22T06:18:39.047Z,100657.34
2023-04-22T06:21:12.371Z,100659.59
2023-04-22T06:23:40.531Z,100664.34
2023-04-22T06:26:08.084Z,100665.84
2023-04-22T06:28:36.866Z,100672.31
2023-04-22T06:31:10.005Z,100667.09
2023-04-22T06:33:37.449Z,100674.63
2023-04-22T06:36:05.698Z,100672.59
2023-04-22T06:38:34.974Z,100680.34
2023-04-22T06:41:23.507Z,100681.44
2023-04-22T06:43:53.070Z,100681.94
2023-04-22T06:46:39.139Z,100683.94
2023-04-22T06:49:29.396Z,100681.16
2023-04-22T06:52:23.482Z,100687.16
2023-04-22T06:54:53.482Z,100684.00
2023-04-22T06:57:21.153Z,100679.75
2023-04-22T06:59:48.493Z,100682.78
2023-04-22T07:02:16.751Z,100675.94
2023-04-22T07:04:44.891Z,100683.19
2023-04-22T07:07:12.774Z,100676.22
2023-04-22T07:09:41.332Z,100679.78
2023-04-22T07:12:09.065Z,100678.38
2023-04-22T07:14:37.614Z,100681.31
2023-04-22T07:17:05.020Z,100679.22
2023-04-22T07:19:33.267Z,100674.47
2023-04-22T07:22:03.419Z,100679.38
2023-04-22T07:24:30.957Z,100668.09
2023-04-22T07:26:58.771Z,100671.81
2023-04-22T07:29:26.250Z,100669.69
2023-04-22T07:31:53.633Z,100674.75
2023-04-22T07:34:21.261Z,100679.75
2023-04-22T07:36:51.157Z,100670.66
2023-04-22T07:39:18.485Z,100680.94
2023-04-22T07:41:45.874Z,100669.81
2023-04-22T07:44:16.534Z,100666.34
2023-04-22T07:46:45.228Z,100673.53
2023-04-22T07:49:14.229Z,100670.84
2023-04-22T07:51:41.742Z,100669.63
2023-04-22T07:54:09.021Z,100679.91
2023-04-22T07:56:36.606Z,100669.78
2023-04-22T07:59:04.188Z,100664.56
2023-04-22T08:01:31.559Z,100666.66
2023-04-22T08:03:59.428Z,100668.41
2023-04-22T08:06:28.197Z,100669.50
2023-04-22T08:08:55.776Z,100659.41
2023-04-22T08:11:23.206Z,100665.34
2023-04-22T08:13:50.643Z,100661.69
2023-04-22T08:16:18.738Z,100665.03
2023-04-22T08:18:46.246Z,100663.25
2023-04-22T08:21:14.529Z,100665.75
2023-04-22T08:23:41.868Z,100664.13
2023-04-22T08:26:10.196Z,100671.53
2023-04-22T08:28:37.650Z,100669.78
2023-04-22T08:31:06.184Z,100663.16
2023-04-22T08:33:33.539Z,100665.00
2023-04-22T08:36:00.925Z,100663.38
2023-04-22T08:38:28.342Z,100666.41
2023-04-22T08:40:57.153Z,100666.53
2023-04-22T08:43:26.816Z,100670.84
2023-04-22T08:45:54.140Z,100669.75
2023-04-22T08:48:21.932Z,100666.34
2023-04-22T08:50:50.549Z,100664.22
2023-04-22T08:53:17.997Z,100660.56
2023-04-22T08:55:46.006Z,100662.78
2023-04-22T08:58:13.568Z,100665.88
2023-04-22T09:00:43.648Z,100653.97
2023-04-22T09:03:11.671Z,100657.50
2023-04-22T09:05:41.037Z,100657.75
2023-04-22T09:08:10.851Z,100653.75
2023-04-22T09:10:39.254Z,100649.25
2023-04-22T09:13:07.167Z,100654.00
2023-04-22T09:15:35.795Z,100649.28
2023-04-22T09:18:04.562Z,100640.31
2023-04-22T09:20:32.301Z,100638.56
2023-04-22T09:23:04.293Z,100642.66
2023-04-22T09:25:34.590Z,100636.22
2023-04-22T09:28:03.358Z,100640.88
2023-04-22T09:30:33.304Z,100645.63
2023-04-22T09:33:03.128Z,100632.81
2023-04-22T09:35:37.751Z,100632.28
2023-04-22T09:38:37.646Z,100616.47
2023-04-22T09:41:13.842Z,100625.44
2023-04-22T09:43:41.305Z,100629.81
2023-04-22T09:46:10.514Z,100627.56
2023-04-22T09:48:43.957Z,100630.78
2023-04-22T09:51:18.192Z,100622.81
2023-04-22T09:53:46.341Z,100625.69
2023-04-22T09:56:13.645Z,100627.97
2023-04-22T09:58:43.305Z,100617.78
2023-04-22T10:01:11.115Z,100616.59
2023-04-22T10:03:38.696Z,100615.22
2023-04-22T10:06:07.159Z,100610.69
2023-04-22T10:08:35.603Z,100616.19
2023-04-22T10:11:03.023Z,100617.06
2023-04-22T10:13:30.506Z,100616.66
2023-04-22T10:15:58.048Z,100620.13
2023-04-22T10:18:29.746Z,100618.19
2023-04-22T10:20:58.382Z,100609.81
2023-04-22T10:23:26.034Z,100612.22
2023-04-22T10:25:55.354Z,100618.78
2023-04-22T10:28:24.551Z,100621.91
2023-04-22T10:30:51.979Z,100610.69
2023-04-22T10:33:27.711Z,100601.53
2023-04-22T10:36:08.466Z,100600.94
2023-04-22T10:38:59.589Z,100603.38
2023-04-22T10:41:30.670Z,100597.66
2023-04-22T10:44:00.303Z,100586.66
2023-04-22T10:46:32.117Z,100594.09
2023-04-22T10:49:06.867Z,100598.53
2023-04-22T10:51:48.838Z,100593.25
2023-04-22T10:54:31.505Z,100589.16
2023-04-22T10:57:11.310Z,100584.91
2023-04-22T11:00:00.456Z,100579.44
2023-04-22T11:02:28.025Z,100588.03
2023-04-22T11:05:26.328Z,100583.25
2023-04-22T11:07:56.059Z,100580.84
2023-04-22T11:10:44.561Z,100581.63
2023-04-22T11:13:17.712Z,100571.56
2023-04-22T11:15:48.165Z,100574.69
2023-04-22T11:18:19.697Z,100570.53
2023-04-22T11:20:50.868Z,100569.56
2023-04-22T11:23:22.511Z,100559.69
2023-04-22T11:25:54.819Z,100566.53
2023-04-22T11:28:23.155Z,100566.88
2023-04-22T11:30:51.477Z,100564.03
2023-04-22T11:33:19.472Z,100544.88
2023-04-22T11:35:50.165Z,100564.72
2023-04-22T11:38:19.485Z,100573.00
2023-04-22T11:40:47.644Z,100560.75
2023-04-22T11:43:16.118Z,100548.97
2023-04-22T11:45:43.765Z,100558.03
2023-04-22T11:48:11.919Z,100548.56
2023-04-22T11:50:42.361Z,100551.72
2023-04-22T11:53:18.670Z,100551.72
2023-04-22T11:55:47.956Z,100553.94
2023-04-22T11:58:17.911Z,100547.34
2023-04-22T12:00:50.656Z,100547.88
2023-04-22T12:03:26.447Z,100536.72
2023-04-22T12:05:55.366Z,100544.25
2023-04-22T12:08:26.431Z,100532.56
2023-04-22T12:10:57.165Z,100520.97
2023-04-22T12:13:33.138Z,100534.59
2023-04-22T12:16:04.449Z,100526.88
2023-04-22T12:18:41.391Z,100530.56
2023-04-22T12:21:11.073Z,100522.31
2023-04-22T12:24:04.967Z,100528.16
2023-04-22T12:26:32.496Z,100513.94
2023-04-22T12:29:00.881Z,100521.63
2023-04-22T12:31:28.502Z,100532.59
2023-04-22T12:33:56.811Z,100534.72
2023-04-22T12:36:25.068Z,100528.31
2023-04-22T12:38:52.808Z,100517.28
2023-04-22T12:41:20.536Z,100519.25
2023-04-22T12:43:48.098Z,100517.16
2023-04-22T12:46:15.655Z,100513.50
2023-04-22T12:48:43.249Z,100515.84
2023-04-22T12:51:10.700Z,100519.38
2023-04-22T12:53:38.252Z,100507.78
2023-04-22T12:56:05.970Z,100497.09
2023-04-22T12:58:33.404Z,100513.56
2023-04-22T13:01:00.837Z,100498.97
2023-04-22T13:03:28.423Z,100496.44
2023-04-22T13:05:56.255Z,100500.47
2023-04-22T13:08:23.747Z,100487.41
2023-04-22T13:10:51.361Z,100497.56
2023-04-22T13:13:19.474Z,100489.41
2023-04-22T13:15:53.318Z,100486.31
2023-04-22T13:18:22.624Z,100490.69
2023-04-22T13:20:51.220Z,100484.41
2023-04-22T13:23:21.835Z,100486.03
2023-04-22T13:25:50.352Z,100477.16
2023-04-22T13:28:17.967Z,100471.97
2023-04-22T13:30:45.758Z,100478.38
2023-04-22T13:33:13.232Z,100485.34
2023-04-22T13:35:40.700Z,100466.66
2023-04-22T13:38:08.240Z,100471.63
2023-04-22T13:40:35.988Z,100472.72
2023-04-22T13:43:03.540Z,100478.50
2023-04-22T13:45:30.956Z,100469.94
2023-04-22T13:47:58.641Z,100471.38
2023-04-22T13:50:26.238Z,100447.53
2023-04-22T13:52:54.301Z,100461.09
2023-04-22T13:55:21.847Z,100463.56
2023-04-22T13:57:51.998Z,100452.53
2023-04-22T14:00:20.943Z,100454.31
2023-04-22T14:02:48.972Z,100454.75
2023-04-22T14:05:16.770Z,100444.66
2023-04-22T14:07:44.168Z,100447.41
2023-04-22T14:10:13.187Z,100435.09
2023-04-22T14:12:40.737Z,100443.69
2023-04-22T14:15:11.264Z,100437.97
2023-04-22T14:17:40.345Z,100436.59
2023-04-22T14:20:10.816Z,100441.75
2023-04-22T14:22:38.229Z,100441.19
2023-04-22T14:25:06.784Z,100440.59
2023-04-22T14:27:34.283Z,100430.75
2023-04-22T14:30:04.268Z,100423.75
2023-04-22T14:32:32.544Z,100429.28
2023-04-22T14:35:00.225Z,100436.47
2023-04-22T14:37:27.733Z,100430.06
2023-04-22T14:39:55.147Z,100429.41
2023-04-22T14:42:22.605Z,100434.28
2023-04-22T14:44:50.054Z,100419.94
2023-04-22T14:47:17.452Z,100426.63
2023-04-22T14:49:45.161Z,100423.91
2023-04-22T14:52:12.626Z,100423.75
2023-04-22T14:54:40.108Z,100440.41
2023-04-22T14:57:07.714Z,100429.03
2023-04-22T14:59:35.167Z,100428.00
2023-04-22T15:02:02.801Z,100415.88
2023-04-22T15:04:30.324Z,100408.25
2023-04-22T15:06:59.655Z,100430.78
2023-04-22T15:09:27.959Z,100407.88
2023-04-22T15:11:56.493Z,100408.28
2023-04-22T15:14:24.105Z,100427.75
2023-04-22T15:16:51.505Z,100411.44
2023-04-22T15:19:18.943Z,100421.31
2023-04-22T15:21:46.897Z,100424.53
2023-04-22T15:24:14.404Z,100422.81
2023-04-22T15:26:42.053Z,100409.22
2023-04-22T15:29:09.674Z,100424.31
2023-04-22T15:31:37.222Z,100421.38
2023-04-22T15:34:04.660Z,100426.81
2023-04-22T15:36:33.236Z,100407.81
2023-04-22T15:39:01.056Z,100424.69
2023-04-22T15:41:28.548Z,100418.09
2023-04-22T15:43:59.231Z,100406.97
2023-04-22T15:46:29.623Z,100411.28
2023-04-22T15:48:57.643Z,100417.00
2023-04-22T15:51:25.957Z,100413.25
2023-04-22T15:53:54.417Z,100418.31
2023-04-22T15:56:22.112Z,100414.91
2023-04-22T15:58:49.795Z,100413.34
2023-04-22T16:01:19.862Z,100398.41
2023-04-22T16:03:48.851Z,100402.41
2023-04-22T16:06:17.967Z,100409.03
2023-04-22T16:08:45.712Z,100412.44
2023-04-22T16:11:15.251Z,100410.59
2023-04-22T16:13:42.893Z,100401.91
2023-04-22T16:16:11.215Z,100406.53
2023-04-22T16:18:39.008Z,100409.59
2023-04-22T16:21:06.696Z,100413.41
2023-04-22T16:23:34.816Z,100422.78
2023-04-22T16:26:04.506Z,100409.38
2023-04-22T16:28:32.459Z,100397.16
2023-04-22T16:31:00.556Z,100412.63
2023-04-22T16:33:28.273Z,100399.53
2023-04-22T16:35:55.910Z,100398.47
2023-04-22T16:38:23.285Z,100409.09
2023-04-22T16:40:54.067Z,100409.00
2023-04-22T16:43:21.563Z,100405.09
2023-04-22T16:45:48.970Z,100409.41
2023-04-22T16:48:16.440Z,100414.06
2023-04-22T16:50:43.821Z,100405.22
2023-04-22T16:53:11.918Z,100408.44
2023-04-22T16:55:39.370Z,100400.78
2023-04-22T16:58:06.968Z,100404.47
2023-04-22T17:00:34.331Z,100408.69
2023-04-22T17:03:01.818Z,100407.06
2023-04-22T17:05:29.320Z,100402.63
2023-04-22T17:07:56.736Z,100409.00
2023-04-22T17:10:24.109Z,100403.72
2023-04-22T17:12:53.337Z,100399.50
2023-04-22T17:15:20.788Z,100405.00
2023-04-22T17:17:48.098Z,100402.41
2023-04-22T17:20:15.550Z,100410.63
2023-04-22T17:22:42.981Z,100404.72
2023-04-22T17:25:10.664Z,100415.72
2023-04-22T17:27:37.966Z,100414.97
2023-04-22T17:30:05.931Z,100410.75
2023-04-22T17:32:33.513Z,100414.53
2023-04-22T17:35:01.027Z,100409.97
2023-04-22T17:37:28.407Z,100403.41
2023-04-22T17:39:56.905Z,100409.00
2023-04-22T17:42:32.104Z,100417.41
2023-04-22T17:45:07.104Z,100415.13
2023-04-22T17:47:34.437Z,100412.19
2023-04-22T17:50:02.044Z,100427.53
2023-04-22T17:52:29.461Z,100415.28
2023-04-22T17:54:58.226Z,100424.72
2023-04-22T17:57:28.418Z,100437.34
2023-04-22T17:59:55.838Z,100419.47
2023-04-22T18:02:25.041Z,100434.16
2023-04-22T18:04:52.726Z,100436.09
2023-04-22T18:07:20.269Z,100449.78
2023-04-22T18:09:49.620Z,100445.56
2023-04-22T18:12:17.948Z,100435.06
2023-04-22T18:14:45.570Z,100436.13
2023-04-22T18:17:13.656Z,100425.09
2023-04-22T18:19:41.443Z,100422.81
2023-04-22T18:22:09.273Z,100432.53
2023-04-22T18:24:37.044Z,100452.56
2023-04-22T18:27:04.750Z,100453.66
2023-04-22T18:29:32.125Z,100446.72
2023-04-22T18:31:59.646Z,100459.25
2023-04-22T18:34:28.524Z,100461.44
2023-04-22T18:36:56.093Z,100465.50
2023-04-22T18:39:23.496Z,100465.81
2023-04-22T18:41:51.592Z,100469.69
2023-04-22T18:44:19.809Z,100464.34
2023-04-22T18:46:47.536Z,100463.78
2023-04-22T18:49:14.949Z,100469.28
2023-04-22T18:51:42.356Z,100468.59
2023-04-22T18:54:09.807Z,100467.06
2023-04-22T18:56:37.224Z,100479.69
2023-04-22T18:59:04.594Z,100484.22
2023-04-22T19:01:31.989Z,100490.19
2023-04-22T19:04:01.866Z,100486.44
2023-04-22T19:06:29.658Z,100496.16
2023-04-22T19:08:57.098Z,100503.47
2023-04-22T19:11:24.775Z,100486.91
2023-04-22T19:13:53.704Z,100490.19
2023-04-22T19:16:22.167Z,100498.00
2023-04-22T19:18:51.388Z,100504.63
2023-04-22T19:21:19.813Z,100504.03
2023-04-22T19:23:47.401Z,100503.94
2023-04-22T19:26:14.756Z,100510.41
2023-04-22T19:28:47.098Z,100509.72
2023-04-22T19:31:17.076Z,100497.50
2023-04-22T19:33:44.934Z,100495.09
2023-04-22T19:36:12.355Z,100504.91
2023-04-22T19:38:39.956Z,100513.00
2023-04-22T19:41:08.971Z,100513.75
2023-04-22T19:43:37.867Z,100512.03
2023-04-22T19:46:05.368Z,100508.06
2023-04-22T19:48:33.600Z,100506.03
2023-04-22T19:51:01.460Z,100493.06
2023-04-22T19:53:31.163Z,100496.22
2023-04-22T19:55:58.680Z,100482.66
2023-04-22T19:58:28.496Z,100492.56
2023-04-22T20:00:56.380Z,100503.34
2023-04-22T20:03:24.985Z,100496.22
2023-04-22T20:05:53.431Z,100495.75
2023-04-22T20:08:26.094Z,100501.44
2023-04-22T20:10:54.998Z,100487.47
2023-04-22T20:13:23.029Z,100510.75
2023-04-22T20:15:50.816Z,100499.03
2023-04-22T20:18:18.671Z,100500.56
2023-04-22T20:20:48.252Z,100499.63
2023-04-22T20:23:17.566Z,100500.66
2023-04-22T20:25:45.757Z,100497.19
2023-04-22T20:28:13.410Z,100488.66
2023-04-22T20:30:41.288Z,100491.72
2023-04-22T20:33:12.216Z,100495.38
2023-04-22T20:35:40.960Z,100497.94
2023-04-22T20:38:12.427Z,100496.88
2023-04-22T20:40:40.376Z,100496.97
2023-04-22T20:43:07.836Z,100484.63
2023-04-22T20:45:35.368Z,100491.84
2023-04-22T20:48:02.849Z,100496.03
2023-04-22T20:50:33.506Z,100503.88
2023-04-22T20:53:02.123Z,100498.97
2023-04-22T20:55:29.624Z,100513.38
2023-04-22T20:57:57.065Z,100494.69
2023-04-22T21:00:24.999Z,100509.38
2023-04-22T21:02:53.700Z,100512.69
2023-04-22T21:05:22.010Z,100518.50
2023-04-22T21:07:52.353Z,100517.09
2023-04-22T21:10:20.851Z,100513.88
2023-04-22T21:12:48.657Z,100509.09
2023-04-22T21:15:16.465Z,100524.13
2023-04-22T21:17:54.200Z,100519.69
2023-04-22T21:20:24.265Z,100528.31
2023-04-22T21:22:53.809Z,100537.16
2023-04-22T21:25:22.270Z,100531.53
2023-04-22T21:27:50.244Z,100532.91
2023-04-22T21:30:18.519Z,100521.47
2023-04-22T21:32:45.916Z,100520.66
2023-04-22T21:35:13.413Z,100520.00
2023-04-22T21:37:41.084Z,100510.72
2023-04-22T21:40:12.007Z,100521.72
2023-04-22T21:42:39.583Z,100520.41
2023-04-22T21:45:07.424Z,100519.09
2023-04-22T21:47:34.935Z,100515.47
2023-04-22T21:50:02.421Z,100517.38
2023-04-22T21:52:29.823Z,100510.63
2023-04-22T21:54:57.238Z,100519.56
2023-04-22T21:57:24.815Z,100524.28
2023-04-22T21:59:52.147Z,100520.53
2023-04-22T22:02:19.943Z,100525.88
2023-04-22T22:04:47.559Z,100524.59
2023-04-22T22:07:17.594Z,100514.44
2023-04-22T22:09:46.552Z,100522.94
2023-04-22T22:12:15.544Z,100504.78
2023-04-22T22:14:43.452Z,100519.00
2023-04-22T22:17:11.711Z,100529.31
2023-04-22T22:19:39.144Z,100530.59
2023-04-22T22:22:06.582Z,100529.22
2023-04-22T22:24:34.120Z,100519.72
2023-04-22T22:27:01.781Z,100509.72
2023-04-22T22:29:29.152Z,100528.25
2023-04-22T22:31:56.579Z,100507.06
2023-04-22T22:34:24.025Z,100517.22
2023-04-22T22:36:51.522Z,100508.69
2023-04-22T22:39:19.026Z,100510.66
2023-04-22T22:41:46.450Z,100506.66
2023-04-22T22:44:13.859Z,100502.66
2023-04-22T22:46:41.491Z,100507.50
2023-04-22T22:49:09.314Z,100515.16
2023-04-22T22:51:37.639Z,100498.69
2023-04-22T22:54:05.561Z,100514.59
2023-04-22T22:56:33.082Z,100498.69
2023-04-22T22:59:00.671Z,100517.69
2023-04-22T23:01:28.170Z,100509.63
2023-04-22T23:03:56.059Z,100496.53
2023-04-22T23:06:23.684Z,100506.25
2023-04-22T23:08:51.173Z,100488.88
2023-04-22T23:11:18.787Z,100491.09
2023-04-22T23:13:46.552Z,100479.56
2023-04-22T23:16:14.032Z,100497.41
2023-04-22T23:18:43.248Z,100488.63
2023-04-22T23:21:12.097Z,100504.25
2023-04-22T23:23:40.986Z,100495.03
2023-04-22T23:26:09.112Z,100500.22
2023-04-22T23:28:36.993Z,100497.75
2023-04-22T23:31:06.783Z,100475.81
2023-04-22T23:33:36.109Z,100483.63
2023-04-22T23:36:06.282Z,100477.53
2023-04-22T23:38:33.786Z,100485.19
2023-04-22T23:41:01.986Z,100476.88
2023-04-22T23:43:29.691Z,100469.00
2023-04-22T23:45:57.137Z,100469.88
2023-04-22T23:48:24.655Z,100472.88
2023-04-22T23:50:52.013Z,100469.09
2023-04-22T23:53:19.391Z,100460.56
2023-04-22T23:55:47.220Z,100462.78
2023-04-22T23:58:15.571Z,100469.63
